ACA764 CYYZ-KBOS
Flight info
| Callsign | ACA764 |
|---|---|
| Flight time | 1h 2m |
| Altitude | 33000 |
| Route | KEPTA3 BMPAH DCT AEVON DCT HANKK DCT PONCT JFUND2 |
| Aircraft | A320/M-SDE3FGHIRWY/LB1 |
Departure
| Time | 2026-05-08 01:07 |
|---|---|
| Airport | Toronto Pearson International Airport (CYYZ) |
Arrival
| Time | 2026-05-08 02:09 |
|---|---|
| Airport | Boston Logan International Airport (KBOS) |
| Time | Latitude | Longitude | Altitude | Speed | Heading |
|---|---|---|---|---|---|
| 2026-05-08 00:41 | 43.67929 | -79.61238 | 562 ft | 0 kts | 91° |
| 2026-05-08 00:54 | 43.67929 | -79.61239 | 561 ft | 2 kts | 91° |
| 2026-05-08 00:54 | 43.67930 | -79.61274 | 564 ft | 4 kts | 91° |
| 2026-05-08 00:55 | 43.67931 | -79.61306 | 568 ft | 4 kts | 89° |
| 2026-05-08 00:55 | 43.67925 | -79.61338 | 569 ft | 4 kts | 43° |
| 2026-05-08 00:55 | 43.67907 | -79.61353 | 565 ft | 0 kts | 15° |
| 2026-05-08 00:58 | 43.67908 | -79.61353 | 565 ft | 1 kts | 15° |
| 2026-05-08 00:58 | 43.67942 | -79.61351 | 565 ft | 7 kts | 342° |
| 2026-05-08 00:58 | 43.67952 | -79.61395 | 571 ft | 4 kts | 251° |
| 2026-05-08 00:59 | 43.67924 | -79.61421 | 568 ft | 12 kts | 206° |
| 2026-05-08 00:59 | 43.67852 | -79.61497 | 565 ft | 13 kts | 225° |
| 2026-05-08 00:59 | 43.67797 | -79.61576 | 568 ft | 11 kts | 226° |
| 2026-05-08 00:59 | 43.67742 | -79.61652 | 570 ft | 11 kts | 216° |
| 2026-05-08 01:00 | 43.67677 | -79.61642 | 567 ft | 9 kts | 168° |
| 2026-05-08 01:00 | 43.67635 | -79.61685 | 567 ft | 9 kts | 245° |
| 2026-05-08 01:00 | 43.67689 | -79.61794 | 569 ft | 19 kts | 320° |
| 2026-05-08 01:00 | 43.67789 | -79.61927 | 563 ft | 21 kts | 316° |
| 2026-05-08 01:01 | 43.67894 | -79.62053 | 566 ft | 17 kts | 330° |
| 2026-05-08 01:01 | 43.67999 | -79.62134 | 565 ft | 18 kts | 315° |
| 2026-05-08 01:01 | 43.68097 | -79.62262 | 565 ft | 20 kts | 317° |
| 2026-05-08 01:01 | 43.68203 | -79.62399 | 563 ft | 22 kts | 317° |
| 2026-05-08 01:02 | 43.68320 | -79.62541 | 562 ft | 23 kts | 316° |
| 2026-05-08 01:02 | 43.68424 | -79.62678 | 562 ft | 20 kts | 317° |
| 2026-05-08 01:02 | 43.68532 | -79.62820 | 566 ft | 22 kts | 316° |
| 2026-05-08 01:02 | 43.68647 | -79.62969 | 565 ft | 19 kts | 318° |
| 2026-05-08 01:03 | 43.68735 | -79.63083 | 562 ft | 18 kts | 316° |
| 2026-05-08 01:03 | 43.68830 | -79.63207 | 562 ft | 20 kts | 316° |
| 2026-05-08 01:03 | 43.68932 | -79.63339 | 564 ft | 20 kts | 317° |
| 2026-05-08 01:03 | 43.69032 | -79.63468 | 569 ft | 15 kts | 315° |
| 2026-05-08 01:04 | 43.69084 | -79.63533 | 571 ft | 8 kts | 333° |
| 2026-05-08 01:04 | 43.69127 | -79.63515 | 570 ft | 7 kts | 39° |
| 2026-05-08 01:04 | 43.69178 | -79.63446 | 569 ft | 12 kts | 40° |
| 2026-05-08 01:04 | 43.69251 | -79.63422 | 566 ft | 11 kts | 2° |
| 2026-05-08 01:05 | 43.69322 | -79.63420 | 567 ft | 5 kts | 1° |
| 2026-05-08 01:05 | 43.69331 | -79.63419 | 563 ft | 4 kts | 1° |
| 2026-05-08 01:05 | 43.69393 | -79.63468 | 561 ft | 11 kts | 317° |
| 2026-05-08 01:05 | 43.69390 | -79.63544 | 563 ft | 9 kts | 227° |
| 2026-05-08 01:06 | 43.69327 | -79.63636 | 565 ft | 30 kts | 226° |
| 2026-05-08 01:06 | 43.69001 | -79.64110 | 569 ft | 102 kts | 226° |
| 2026-05-08 01:06 | 43.68371 | -79.65019 | 573 ft | 157 kts | 226° |
| 2026-05-08 01:06 | 43.67567 | -79.66157 | 1003 ft | 169 kts | 226° |
| 2026-05-08 01:07 | 43.66805 | -79.67401 | 1775 ft | 170 kts | 234° |
| 2026-05-08 01:07 | 43.66086 | -79.68692 | 2497 ft | 173 kts | 234° |
| 2026-05-08 01:07 | 43.65332 | -79.70124 | 2872 ft | 194 kts | 236° |
| 2026-05-08 01:07 | 43.64514 | -79.71745 | 3230 ft | 219 kts | 237° |
| 2026-05-08 01:08 | 43.63613 | -79.73565 | 3759 ft | 239 kts | 238° |
| 2026-05-08 01:08 | 43.62649 | -79.75536 | 4419 ft | 255 kts | 233° |
| 2026-05-08 01:08 | 43.61298 | -79.77143 | 5376 ft | 261 kts | 211° |
| 2026-05-08 01:08 | 43.59538 | -79.77838 | 6358 ft | 269 kts | 185° |
| 2026-05-08 01:09 | 43.57686 | -79.77363 | 7308 ft | 278 kts | 160° |
| 2026-05-08 01:09 | 43.56150 | -79.75703 | 8156 ft | 290 kts | 128° |
| 2026-05-08 01:09 | 43.55207 | -79.73208 | 8986 ft | 297 kts | 116° |
| 2026-05-08 01:09 | 43.54348 | -79.70586 | 9845 ft | 302 kts | 116° |
| 2026-05-08 01:10 | 43.53446 | -79.67902 | 10355 ft | 319 kts | 117° |
| 2026-05-08 01:10 | 43.52451 | -79.65061 | 10713 ft | 338 kts | 118° |
| 2026-05-08 01:10 | 43.51493 | -79.62041 | 11375 ft | 348 kts | 110° |
| 2026-05-08 01:10 | 43.50987 | -79.58764 | 12150 ft | 354 kts | 96° |
| 2026-05-08 01:11 | 43.51010 | -79.55343 | 12922 ft | 360 kts | 83° |
| 2026-05-08 01:11 | 43.51539 | -79.51953 | 13692 ft | 364 kts | 75° |
| 2026-05-08 01:11 | 43.52191 | -79.48574 | 14376 ft | 368 kts | 76° |
| 2026-05-08 01:11 | 43.52579 | -79.45069 | 15057 ft | 371 kts | 88° |
| 2026-05-08 01:12 | 43.52462 | -79.41508 | 15736 ft | 374 kts | 100° |
| 2026-05-08 01:12 | 43.51851 | -79.38076 | 16407 ft | 375 kts | 111° |
| 2026-05-08 01:12 | 43.50854 | -79.34743 | 17075 ft | 378 kts | 115° |
| 2026-05-08 01:12 | 43.49823 | -79.31398 | 17727 ft | 382 kts | 114° |
| 2026-05-08 01:13 | 43.48783 | -79.28009 | 18344 ft | 386 kts | 114° |
| 2026-05-08 01:13 | 43.47736 | -79.24582 | 18909 ft | 390 kts | 114° |
| 2026-05-08 01:13 | 43.46677 | -79.21112 | 19489 ft | 393 kts | 114° |
| 2026-05-08 01:13 | 43.45612 | -79.17628 | 20073 ft | 396 kts | 114° |
| 2026-05-08 01:14 | 43.44536 | -79.14116 | 20655 ft | 400 kts | 114° |
| 2026-05-08 01:14 | 43.43449 | -79.10586 | 21236 ft | 403 kts | 114° |
| 2026-05-08 01:14 | 43.42346 | -79.07025 | 21809 ft | 406 kts | 114° |
| 2026-05-08 01:14 | 43.41234 | -79.03441 | 22393 ft | 409 kts | 114° |
| 2026-05-08 01:15 | 43.40111 | -78.99831 | 22976 ft | 412 kts | 114° |
| 2026-05-08 01:15 | 43.38983 | -78.96202 | 23533 ft | 415 kts | 114° |
| 2026-05-08 01:15 | 43.37844 | -78.92530 | 23972 ft | 418 kts | 114° |
| 2026-05-08 01:15 | 43.36693 | -78.88827 | 24362 ft | 423 kts | 114° |
| 2026-05-08 01:16 | 43.35528 | -78.85101 | 24766 ft | 427 kts | 115° |
| 2026-05-08 01:16 | 43.34349 | -78.81336 | 25160 ft | 431 kts | 115° |
| 2026-05-08 01:16 | 43.33157 | -78.77538 | 25525 ft | 435 kts | 115° |
| 2026-05-08 01:16 | 43.31954 | -78.73701 | 25891 ft | 439 kts | 115° |
| 2026-05-08 01:17 | 43.30740 | -78.69832 | 26255 ft | 444 kts | 115° |
| 2026-05-08 01:17 | 43.29516 | -78.65935 | 26601 ft | 448 kts | 116° |
| 2026-05-08 01:17 | 43.28271 | -78.61983 | 26938 ft | 452 kts | 116° |
| 2026-05-08 01:17 | 43.27011 | -78.58005 | 27273 ft | 456 kts | 116° |
| 2026-05-08 01:18 | 43.25743 | -78.53991 | 27606 ft | 460 kts | 116° |
| 2026-05-08 01:18 | 43.24481 | -78.49994 | 27857 ft | 466 kts | 117° |
| 2026-05-08 01:18 | 43.23184 | -78.45892 | 28095 ft | 472 kts | 117° |
| 2026-05-08 01:18 | 43.21869 | -78.41750 | 28403 ft | 476 kts | 117° |
| 2026-05-08 01:19 | 43.20539 | -78.37575 | 28719 ft | 480 kts | 117° |
| 2026-05-08 01:19 | 43.19091 | -78.33469 | 29031 ft | 479 kts | 124° |
| 2026-05-08 01:19 | 43.17266 | -78.29668 | 29339 ft | 477 kts | 134° |
| 2026-05-08 01:19 | 43.15165 | -78.26133 | 29648 ft | 478 kts | 135° |
| 2026-05-08 01:20 | 43.13043 | -78.22599 | 29959 ft | 482 kts | 136° |
| 2026-05-08 01:20 | 43.10917 | -78.19051 | 30202 ft | 485 kts | 135° |
| 2026-05-08 01:20 | 43.08769 | -78.15454 | 30461 ft | 488 kts | 135° |
| 2026-05-08 01:20 | 43.06618 | -78.11851 | 30715 ft | 490 kts | 135° |
| 2026-05-08 01:21 | 43.04455 | -78.08232 | 30962 ft | 492 kts | 135° |
| 2026-05-08 01:21 | 43.02282 | -78.04606 | 31205 ft | 494 kts | 135° |
| 2026-05-08 01:21 | 43.00093 | -78.00963 | 31442 ft | 497 kts | 135° |
| 2026-05-08 01:21 | 42.97896 | -77.97314 | 31679 ft | 498 kts | 136° |
| 2026-05-08 01:22 | 42.95702 | -77.93636 | 31940 ft | 502 kts | 133° |
| 2026-05-08 01:22 | 42.93791 | -77.89603 | 32231 ft | 511 kts | 123° |
| 2026-05-08 01:22 | 42.92361 | -77.85206 | 32538 ft | 518 kts | 113° |
| 2026-05-08 01:22 | 42.91437 | -77.80436 | 32835 ft | 523 kts | 102° |
| 2026-05-08 01:23 | 42.91064 | -77.75497 | 32930 ft | 522 kts | 93° |
| 2026-05-08 01:23 | 42.90961 | -77.70626 | 32945 ft | 510 kts | 93° |
| 2026-05-08 01:23 | 42.90850 | -77.65778 | 32948 ft | 515 kts | 93° |
| 2026-05-08 01:24 | 42.90600 | -77.55921 | 32937 ft | 522 kts | 94° |
| 2026-05-08 01:24 | 42.90336 | -77.46013 | 32946 ft | 523 kts | 94° |
| 2026-05-08 01:25 | 42.90074 | -77.36099 | 32946 ft | 523 kts | 94° |
| 2026-05-08 01:25 | 42.89811 | -77.26172 | 32946 ft | 524 kts | 94° |
| 2026-05-08 01:26 | 42.89530 | -77.16247 | 32920 ft | 524 kts | 94° |
| 2026-05-08 01:26 | 42.89224 | -77.06330 | 32930 ft | 524 kts | 94° |
| 2026-05-08 01:27 | 42.88917 | -76.96422 | 32952 ft | 523 kts | 94° |
| 2026-05-08 01:27 | 42.88607 | -76.86513 | 32915 ft | 522 kts | 95° |
| 2026-05-08 01:28 | 42.88281 | -76.76619 | 32929 ft | 522 kts | 95° |
| 2026-05-08 01:28 | 42.87955 | -76.66742 | 32933 ft | 521 kts | 95° |
| 2026-05-08 01:29 | 42.87615 | -76.56936 | 32931 ft | 521 kts | 95° |
| 2026-05-08 01:29 | 42.87263 | -76.47058 | 32897 ft | 521 kts | 95° |
| 2026-05-08 01:30 | 42.86912 | -76.37177 | 32909 ft | 521 kts | 96° |
| 2026-05-08 01:30 | 42.86545 | -76.27312 | 32916 ft | 521 kts | 96° |
| 2026-05-08 01:31 | 42.86171 | -76.17441 | 32921 ft | 521 kts | 96° |
| 2026-05-08 01:31 | 42.85789 | -76.07564 | 32900 ft | 522 kts | 96° |
| 2026-05-08 01:32 | 42.85400 | -75.97751 | 32909 ft | 522 kts | 96° |
| 2026-05-08 01:32 | 42.85000 | -75.87862 | 32916 ft | 522 kts | 96° |
| 2026-05-08 01:33 | 42.84601 | -75.77974 | 32880 ft | 522 kts | 96° |
| 2026-05-08 01:33 | 42.84183 | -75.68074 | 32913 ft | 524 kts | 97° |
| 2026-05-08 01:34 | 42.83752 | -75.58204 | 32920 ft | 524 kts | 97° |
| 2026-05-08 01:34 | 42.83317 | -75.48307 | 32924 ft | 524 kts | 97° |
| 2026-05-08 01:35 | 42.82878 | -75.38376 | 32908 ft | 525 kts | 98° |
| 2026-05-08 01:35 | 42.82423 | -75.28435 | 32915 ft | 526 kts | 98° |
| 2026-05-08 01:36 | 42.81960 | -75.18495 | 32911 ft | 526 kts | 98° |
| 2026-05-08 01:36 | 42.81496 | -75.08547 | 32910 ft | 526 kts | 98° |
| 2026-05-08 01:37 | 42.81015 | -74.98602 | 32885 ft | 526 kts | 99° |
| 2026-05-08 01:37 | 42.80523 | -74.88701 | 32895 ft | 526 kts | 99° |
| 2026-05-08 01:38 | 42.80023 | -74.78762 | 32906 ft | 526 kts | 99° |
| 2026-05-08 01:38 | 42.79520 | -74.68802 | 32906 ft | 526 kts | 99° |
| 2026-05-08 01:39 | 42.79009 | -74.58865 | 32941 ft | 526 kts | 99° |
| 2026-05-08 01:39 | 42.78485 | -74.48950 | 32932 ft | 525 kts | 99° |
| 2026-05-08 01:40 | 42.77955 | -74.39051 | 32926 ft | 524 kts | 99° |
| 2026-05-08 01:40 | 42.77416 | -74.29156 | 32888 ft | 524 kts | 99° |
| 2026-05-08 01:41 | 42.76869 | -74.19257 | 32886 ft | 524 kts | 99° |
| 2026-05-08 01:41 | 42.76317 | -74.09363 | 32889 ft | 524 kts | 99° |
| 2026-05-08 01:42 | 42.75753 | -73.99488 | 32861 ft | 524 kts | 100° |
| 2026-05-08 01:42 | 42.75177 | -73.89569 | 32872 ft | 525 kts | 100° |
| 2026-05-08 01:43 | 42.74618 | -73.79706 | 32882 ft | 527 kts | 99° |
| 2026-05-08 01:43 | 42.74416 | -73.69691 | 32887 ft | 531 kts | 95° |
| 2026-05-08 01:44 | 42.74483 | -73.59617 | 32903 ft | 533 kts | 94° |
| 2026-05-08 01:44 | 42.74509 | -73.49544 | 32904 ft | 533 kts | 95° |
| 2026-05-08 01:45 | 42.74419 | -73.39462 | 32890 ft | 532 kts | 96° |
| 2026-05-08 01:45 | 42.74349 | -73.34419 | 32759 ft | 539 kts | 96° |
| 2026-05-08 01:45 | 42.74273 | -73.29285 | 32435 ft | 544 kts | 96° |
| 2026-05-08 01:45 | 42.74229 | -73.25880 | 32264 ft | 543 kts | 96° |
| 2026-05-08 01:46 | 42.74167 | -73.20746 | 31984 ft | 542 kts | 96° |
| 2026-05-08 01:46 | 42.74112 | -73.15610 | 31191 ft | 542 kts | 96° |
| 2026-05-08 01:46 | 42.73937 | -73.10509 | 30489 ft | 535 kts | 103° |
| 2026-05-08 01:46 | 42.73407 | -73.05559 | 29892 ft | 528 kts | 106° |
| 2026-05-08 01:47 | 42.72657 | -72.99046 | 29037 ft | 521 kts | 106° |
| 2026-05-08 01:47 | 42.72279 | -72.95761 | 28633 ft | 518 kts | 106° |
| 2026-05-08 01:47 | 42.71732 | -72.91011 | 28050 ft | 512 kts | 106° |
| 2026-05-08 01:48 | 42.70631 | -72.81536 | 26886 ft | 502 kts | 106° |
| 2026-05-08 01:48 | 42.70084 | -72.76870 | 26307 ft | 497 kts | 106° |
| 2026-05-08 01:48 | 42.69538 | -72.72249 | 25737 ft | 493 kts | 106° |
| 2026-05-08 01:48 | 42.68993 | -72.67661 | 25184 ft | 489 kts | 106° |
| 2026-05-08 01:49 | 42.68453 | -72.63139 | 24652 ft | 484 kts | 106° |
| 2026-05-08 01:49 | 42.67915 | -72.58649 | 24091 ft | 479 kts | 106° |
| 2026-05-08 01:49 | 42.67374 | -72.54200 | 23605 ft | 474 kts | 107° |
| 2026-05-08 01:49 | 42.66836 | -72.49821 | 23063 ft | 469 kts | 107° |
| 2026-05-08 01:50 | 42.66303 | -72.45482 | 22592 ft | 462 kts | 107° |
| 2026-05-08 01:50 | 42.65781 | -72.41203 | 22112 ft | 456 kts | 107° |
| 2026-05-08 01:50 | 42.65263 | -72.36975 | 21643 ft | 451 kts | 107° |
| 2026-05-08 01:50 | 42.64745 | -72.32784 | 21178 ft | 447 kts | 106° |
| 2026-05-08 01:51 | 42.64243 | -72.28645 | 20852 ft | 439 kts | 106° |
| 2026-05-08 01:51 | 42.63769 | -72.24581 | 20276 ft | 436 kts | 105° |
| 2026-05-08 01:51 | 42.63283 | -72.20427 | 19690 ft | 452 kts | 105° |
| 2026-05-08 01:51 | 42.62788 | -72.16184 | 19173 ft | 454 kts | 105° |
| 2026-05-08 01:52 | 42.62298 | -72.11968 | 18653 ft | 451 kts | 105° |
| 2026-05-08 01:52 | 42.61814 | -72.07777 | 18125 ft | 447 kts | 105° |
| 2026-05-08 01:52 | 42.61332 | -72.03625 | 17850 ft | 443 kts | 104° |
| 2026-05-08 01:52 | 42.60847 | -71.99552 | 17318 ft | 444 kts | 104° |
| 2026-05-08 01:53 | 42.60334 | -71.95415 | 16752 ft | 440 kts | 104° |
| 2026-05-08 01:53 | 42.59817 | -71.91318 | 16165 ft | 441 kts | 104° |
| 2026-05-08 01:53 | 42.59295 | -71.87228 | 15671 ft | 439 kts | 104° |
| 2026-05-08 01:53 | 42.58780 | -71.83153 | 15164 ft | 436 kts | 103° |
| 2026-05-08 01:54 | 42.58249 | -71.79125 | 14672 ft | 431 kts | 104° |
| 2026-05-08 01:54 | 42.57660 | -71.75160 | 14158 ft | 426 kts | 104° |
| 2026-05-08 01:54 | 42.57032 | -71.71251 | 13653 ft | 422 kts | 104° |
| 2026-05-08 01:54 | 42.56390 | -71.67392 | 13103 ft | 417 kts | 104° |
| 2026-05-08 01:55 | 42.55748 | -71.63578 | 12593 ft | 413 kts | 104° |
| 2026-05-08 01:55 | 42.55123 | -71.59804 | 12080 ft | 408 kts | 104° |
| 2026-05-08 01:55 | 42.54463 | -71.56078 | 11668 ft | 404 kts | 105° |
| 2026-05-08 01:55 | 42.53733 | -71.52410 | 11285 ft | 401 kts | 107° |
| 2026-05-08 01:56 | 42.52965 | -71.48787 | 10970 ft | 398 kts | 108° |
| 2026-05-08 01:56 | 42.52199 | -71.45251 | 10769 ft | 382 kts | 108° |
| 2026-05-08 01:56 | 42.51466 | -71.41873 | 10646 ft | 365 kts | 108° |
| 2026-05-08 01:56 | 42.50771 | -71.38639 | 10516 ft | 350 kts | 107° |
| 2026-05-08 01:57 | 42.50118 | -71.35548 | 10376 ft | 330 kts | 107° |
| 2026-05-08 01:57 | 42.49520 | -71.32617 | 9952 ft | 318 kts | 106° |
| 2026-05-08 01:57 | 42.48949 | -71.29758 | 9350 ft | 313 kts | 105° |
| 2026-05-08 01:57 | 42.48389 | -71.26926 | 9027 ft | 308 kts | 105° |
| 2026-05-08 01:58 | 42.47837 | -71.24143 | 8722 ft | 304 kts | 105° |
| 2026-05-08 01:58 | 42.47289 | -71.21399 | 8445 ft | 300 kts | 105° |
| 2026-05-08 01:58 | 42.46747 | -71.18687 | 8171 ft | 298 kts | 105° |
| 2026-05-08 01:58 | 42.46214 | -71.15986 | 7900 ft | 296 kts | 102° |
| 2026-05-08 01:59 | 42.45912 | -71.13240 | 7624 ft | 293 kts | 96° |
| 2026-05-08 01:59 | 42.45666 | -71.10511 | 7355 ft | 292 kts | 96° |
| 2026-05-08 01:59 | 42.45420 | -71.07803 | 7051 ft | 287 kts | 96° |
| 2026-05-08 01:59 | 42.45177 | -71.05121 | 7000 ft | 287 kts | 96° |
| 2026-05-08 02:00 | 42.44931 | -71.02432 | 6995 ft | 288 kts | 97° |
| 2026-05-08 02:00 | 42.44627 | -70.99748 | 6874 ft | 288 kts | 99° |
| 2026-05-08 02:00 | 42.44300 | -70.97076 | 6774 ft | 287 kts | 94° |
| 2026-05-08 02:00 | 42.44389 | -70.94403 | 6661 ft | 284 kts | 78° |
| 2026-05-08 02:01 | 42.44773 | -70.91781 | 6556 ft | 283 kts | 77° |
| 2026-05-08 02:01 | 42.45165 | -70.89189 | 6230 ft | 280 kts | 76° |
| 2026-05-08 02:01 | 42.45566 | -70.86622 | 5793 ft | 278 kts | 76° |
| 2026-05-08 02:01 | 42.45964 | -70.84076 | 5395 ft | 276 kts | 76° |
| 2026-05-08 02:02 | 42.46349 | -70.81550 | 4746 ft | 273 kts | 76° |
| 2026-05-08 02:02 | 42.46723 | -70.79035 | 4053 ft | 272 kts | 76° |
| 2026-05-08 02:02 | 42.47090 | -70.76534 | 3364 ft | 270 kts | 76° |
| 2026-05-08 02:02 | 42.47442 | -70.74051 | 3063 ft | 264 kts | 79° |
| 2026-05-08 02:03 | 42.47302 | -70.71653 | 2997 ft | 251 kts | 110° |
| 2026-05-08 02:03 | 42.46349 | -70.69812 | 3004 ft | 231 kts | 144° |
| 2026-05-08 02:03 | 42.44972 | -70.68869 | 3005 ft | 223 kts | 163° |
| 2026-05-08 02:03 | 42.43478 | -70.68554 | 3001 ft | 215 kts | 194° |
| 2026-05-08 02:04 | 42.42112 | -70.69302 | 3001 ft | 207 kts | 220° |
| 2026-05-08 02:04 | 42.41147 | -70.70653 | 2995 ft | 201 kts | 243° |
| 2026-05-08 02:04 | 42.40644 | -70.72396 | 3003 ft | 196 kts | 260° |
| 2026-05-08 02:04 | 42.40339 | -70.74151 | 2996 ft | 187 kts | 260° |
| 2026-05-08 02:05 | 42.40049 | -70.75822 | 3020 ft | 179 kts | 261° |
| 2026-05-08 02:05 | 42.39766 | -70.77446 | 2999 ft | 177 kts | 260° |
| 2026-05-08 02:05 | 42.39484 | -70.79064 | 2916 ft | 177 kts | 261° |
| 2026-05-08 02:05 | 42.39202 | -70.80677 | 2724 ft | 175 kts | 260° |
| 2026-05-08 02:06 | 42.38923 | -70.82274 | 2501 ft | 174 kts | 261° |
| 2026-05-08 02:06 | 42.38645 | -70.83862 | 2271 ft | 173 kts | 261° |
| 2026-05-08 02:06 | 42.38368 | -70.85440 | 2039 ft | 171 kts | 262° |
| 2026-05-08 02:06 | 42.38098 | -70.86976 | 1812 ft | 164 kts | 261° |
| 2026-05-08 02:07 | 42.37839 | -70.88447 | 1587 ft | 157 kts | 262° |
| 2026-05-08 02:07 | 42.37596 | -70.89824 | 1371 ft | 144 kts | 262° |
| 2026-05-08 02:07 | 42.37373 | -70.91089 | 1201 ft | 134 kts | 261° |
| 2026-05-08 02:07 | 42.37161 | -70.92298 | 1017 ft | 131 kts | 261° |
| 2026-05-08 02:08 | 42.36952 | -70.93491 | 840 ft | 130 kts | 259° |
| 2026-05-08 02:08 | 42.36741 | -70.94669 | 695 ft | 129 kts | 258° |
| 2026-05-08 02:08 | 42.36531 | -70.95856 | 515 ft | 131 kts | 259° |
| 2026-05-08 02:08 | 42.36323 | -70.97064 | 333 ft | 133 kts | 259° |
| 2026-05-08 02:09 | 42.36110 | -70.98271 | 154 ft | 131 kts | 260° |
| 2026-05-08 02:09 | 42.35906 | -70.99450 | 27 ft | 118 kts | 259° |
| 2026-05-08 02:09 | 42.35783 | -71.00152 | 25 ft | 34 kts | 257° |
| 2026-05-08 02:09 | 42.35753 | -71.00393 | 25 ft | 22 kts | 272° |
| 2026-05-08 02:10 | 42.35774 | -71.00595 | 25 ft | 22 kts | 278° |
| 2026-05-08 02:10 | 42.35793 | -71.00759 | 28 ft | 7 kts | 279° |
| 2026-05-08 02:10 | 42.35804 | -71.00847 | 28 ft | 15 kts | 279° |
| 2026-05-08 02:10 | 42.35823 | -71.01022 | 25 ft | 20 kts | 277° |
| 2026-05-08 02:11 | 42.35838 | -71.01201 | 25 ft | 19 kts | 275° |
| 2026-05-08 02:11 | 42.35858 | -71.01385 | 25 ft | 21 kts | 282° |
| 2026-05-08 02:11 | 42.35878 | -71.01507 | 28 ft | 10 kts | 282° |
| 2026-05-08 02:11 | 42.35882 | -71.01532 | 27 ft | 0 kts | 283° |
| 2026-05-08 02:12 | 42.35885 | -71.01547 | 25 ft | 5 kts | 282° |
| 2026-05-08 02:12 | 42.35900 | -71.01651 | 25 ft | 15 kts | 279° |
| 2026-05-08 02:12 | 42.35920 | -71.01796 | 29 ft | 16 kts | 284° |
| 2026-05-08 02:12 | 42.35972 | -71.01937 | 27 ft | 17 kts | 301° |
| 2026-05-08 02:13 | 42.36029 | -71.02064 | 26 ft | 17 kts | 300° |
| 2026-05-08 02:13 | 42.36088 | -71.02199 | 29 ft | 13 kts | 301° |
| 2026-05-08 02:13 | 42.36160 | -71.02272 | 28 ft | 15 kts | 359° |
| 2026-05-08 02:13 | 42.36243 | -71.02243 | 25 ft | 10 kts | 33° |
| 2026-05-08 02:14 | 42.36272 | -71.02164 | 27 ft | 9 kts | 74° |
| 2026-05-08 02:14 | 42.36284 | -71.02105 | 25 ft | 6 kts | 74° |
| 2026-05-08 02:14 | 42.36290 | -71.02054 | 25 ft | 5 kts | 98° |
| 2026-05-08 02:14 | 42.36279 | -71.02020 | 31 ft | 2 kts | 114° |
| 2026-05-08 02:15 | 42.36275 | -71.02009 | 30 ft | 1 kts | 114° |
| 2026-05-08 02:15 | 42.36269 | -71.01993 | 30 ft | 1 kts | 115° |
| 2026-05-08 02:15 | 42.36267 | -71.01987 | 29 ft | 0 kts | 116° |
| 2026-05-08 02:15 | 42.36267 | -71.01986 | 29 ft | 0 kts | 116° |